Terminal Aerodrome Forecast
Issued by NWS

Current Version | Previous Version | Graphics & Text | Print | Product List | Glossary On
Versions: 1 2 3 4 5 6 7 8 9 10 11 12 13 14 15 16 17 18
361
FTUS41 KPBZ 181121
TAFMGW
TAF
KMGW 181121Z 1812/1912 21006KT P6SM VCSH BKN015
      TEMPO 1812/1814 3SM -SHRA BR BKN012
     FM181500 21005KT P6SM VCSH SCT015 BKN025
     FM181800 24008G16KT P6SM SCT025
     FM182100 25010G19KT P6SM SCT040=

USA.gov is the U.S. government's official web portal to all federal, state and local government web resources and services.